createdAt,value
2022-12-31T00:01:44.913Z,100201.78
2022-12-31T00:04:11.446Z,100212.66
2022-12-31T00:06:38.040Z,100213.44
2022-12-31T00:09:07.078Z,100210.19
2022-12-31T00:11:34.845Z,100224.59
2022-12-31T00:14:01.527Z,100231.94
2022-12-31T00:16:31.295Z,100224.09
2022-12-31T00:18:59.906Z,100220.28
2022-12-31T00:21:28.806Z,100223.31
2022-12-31T00:23:55.695Z,100223.31
2022-12-31T00:26:27.275Z,100229.81
2022-12-31T00:28:55.375Z,100213.81
2022-12-31T00:31:24.767Z,100229.31
2022-12-31T00:33:51.969Z,100216.53
2022-12-31T00:36:27.248Z,100218.72
2022-12-31T00:38:55.532Z,100222.28
2022-12-31T00:41:23.394Z,100209.75
2022-12-31T00:43:50.873Z,100213.59
2022-12-31T00:46:17.902Z,100210.88
2022-12-31T00:48:44.539Z,100205.44
2022-12-31T00:51:13.624Z,100193.75
2022-12-31T00:53:40.436Z,100204.94
2022-12-31T00:56:11.527Z,100213.88
2022-12-31T00:58:38.613Z,100214.97
2022-12-31T01:01:14.600Z,100213.34
2022-12-31T01:03:41.209Z,100203.59
2022-12-31T01:06:08.191Z,100204.41
2022-12-31T01:08:35.216Z,100204.69
2022-12-31T01:11:21.186Z,100200.06
2022-12-31T01:13:49.752Z,100209.31
2022-12-31T01:16:17.668Z,100201.44
2022-12-31T01:18:44.234Z,100199.84
2022-12-31T01:21:12.558Z,100194.91
2022-12-31T01:23:39.221Z,100206.09
2022-12-31T01:26:07.909Z,100211.78
2022-12-31T01:28:35.043Z,100206.09
2022-12-31T01:31:10.185Z,100203.63
2022-12-31T01:33:37.303Z,100204.75
2022-12-31T01:36:07.035Z,100210.19
2022-12-31T01:38:34.669Z,100202.84
2022-12-31T01:41:01.378Z,100207.78
2022-12-31T01:43:50.484Z,100202.34
2022-12-31T01:46:43.701Z,100186.31
2022-12-31T01:49:58.175Z,100183.59
2022-12-31T01:52:32.645Z,100176.25
2022-12-31T01:55:17.920Z,100165.66
2022-12-31T01:57:47.133Z,100171.09
2022-12-31T02:00:14.702Z,100184.69
2022-12-31T02:02:41.429Z,100197.47
2022-12-31T02:05:26.160Z,100197.47
2022-12-31T02:07:54.477Z,100215.69
2022-12-31T02:10:21.213Z,100197.47
2022-12-31T02:12:48.199Z,100225.75
2022-12-31T02:15:15.061Z,100235.84
2022-12-31T02:18:00.225Z,100255.13
2022-12-31T02:20:58.125Z,100261.38
2022-12-31T02:23:58.906Z,100242.66
2022-12-31T02:26:28.033Z,100238.31
2022-12-31T02:29:12.148Z,100241.03
2022-12-31T02:31:56.302Z,100232.03
2022-12-31T02:34:25.554Z,100234.75
2022-12-31T02:36:55.119Z,100231.53
2022-12-31T02:39:22.249Z,100236.97
2022-12-31T02:41:50.112Z,100245.44
2022-12-31T02:44:29.939Z,100240.00
2022-12-31T02:47:05.257Z,100232.66
2022-12-31T02:49:40.831Z,100253.59
2022-12-31T02:52:13.321Z,100243.53
2022-12-31T02:55:01.667Z,100253.06
2022-12-31T02:57:39.150Z,100251.16
2022-12-31T03:00:31.958Z,100256.56
2022-12-31T03:03:00.377Z,100253.88
2022-12-31T03:05:36.711Z,100257.69
2022-12-31T03:08:03.476Z,100256.06
2022-12-31T03:10:30.131Z,100258.78
2022-12-31T03:12:56.708Z,100253.34
2022-12-31T03:15:26.609Z,100250.09
2022-12-31T03:17:58.082Z,100240.03
2022-12-31T03:20:50.662Z,100235.72
2022-12-31T03:23:25.925Z,100227.25
2022-12-31T03:25:53.463Z,100217.81
2022-12-31T03:28:23.012Z,100208.53
2022-12-31T03:30:52.951Z,100209.66
2022-12-31T03:33:20.500Z,100195.19
2022-12-31T03:35:47.990Z,100192.78
2022-12-31T03:38:15.472Z,100205.25
2022-12-31T03:40:44.620Z,100205.25
2022-12-31T03:43:11.584Z,100188.16
2022-12-31T03:45:38.588Z,100196.59
2022-12-31T03:48:07.109Z,100203.66
2022-12-31T03:50:33.739Z,100210.47
2022-12-31T03:53:00.557Z,100204.75
2022-12-31T03:55:27.200Z,100203.16
2022-12-31T03:57:53.697Z,100216.75
2022-12-31T04:00:21.931Z,100215.91
2022-12-31T04:02:49.536Z,100217.00
2022-12-31T04:05:17.306Z,100228.19
2022-12-31T04:07:44.158Z,100227.06
2022-12-31T04:10:13.806Z,100218.91
2022-12-31T04:12:40.697Z,100220.84
2022-12-31T04:15:08.294Z,100222.75
2022-12-31T04:17:34.783Z,100197.50
2022-12-31T04:20:01.281Z,100199.38
2022-12-31T04:22:27.840Z,100219.50
2022-12-31T04:24:54.393Z,100196.16
2022-12-31T04:27:20.942Z,100204.31
2022-12-31T04:29:47.492Z,100215.66
2022-12-31T04:32:13.969Z,100194.25
2022-12-31T04:34:40.531Z,100197.25
2022-12-31T04:37:07.056Z,100203.78
2022-12-31T04:39:33.685Z,100204.59
2022-12-31T04:42:00.242Z,100201.34
2022-12-31T04:44:26.768Z,100202.97
2022-12-31T04:46:53.404Z,100213.03
2022-12-31T04:49:19.994Z,100201.34
2022-12-31T04:51:46.627Z,100203.25
2022-12-31T04:54:13.213Z,100207.91
2022-12-31T04:56:39.813Z,100208.69
2022-12-31T04:59:07.360Z,100204.06
2022-12-31T05:01:34.030Z,100218.19
2022-12-31T05:04:00.594Z,100214.59
2022-12-31T05:06:27.256Z,100201.75
2022-12-31T05:08:54.235Z,100205.53
2022-12-31T05:11:20.709Z,100213.91
2022-12-31T05:13:47.330Z,100216.84
2022-12-31T05:16:13.940Z,100210.84
2022-12-31T05:18:40.539Z,100208.34
2022-12-31T05:21:07.147Z,100203.13
2022-12-31T05:23:34.433Z,100208.28
2022-12-31T05:26:01.777Z,100214.25
2022-12-31T05:28:28.401Z,100209.31
2022-12-31T05:30:55.388Z,100199.25
2022-12-31T05:33:23.051Z,100208.72
2022-12-31T05:35:49.644Z,100210.38
2022-12-31T05:38:16.202Z,100207.34
2022-12-31T05:40:42.666Z,100203.00
2022-12-31T05:43:09.245Z,100191.03
2022-12-31T05:45:35.787Z,100213.59
2022-12-31T05:48:02.380Z,100208.94
2022-12-31T05:50:28.955Z,100220.63
2022-12-31T05:52:55.901Z,100216.00
2022-12-31T05:55:22.580Z,100225.00
2022-12-31T05:57:49.105Z,100211.41
2022-12-31T06:00:16.263Z,100209.47
2022-12-31T06:02:43.168Z,100209.47
2022-12-31T06:05:10.363Z,100225.00
2022-12-31T06:07:36.855Z,100226.59
2022-12-31T06:10:03.806Z,100226.88
2022-12-31T06:12:30.308Z,100225.00
2022-12-31T06:14:56.813Z,100224.69
2022-12-31T06:17:23.358Z,100227.63
2022-12-31T06:19:49.839Z,100233.88
2022-12-31T06:22:16.513Z,100228.13
2022-12-31T06:24:43.071Z,100228.97
2022-12-31T06:27:09.858Z,100224.31
2022-12-31T06:29:36.411Z,100225.94
2022-12-31T06:32:03.162Z,100243.06
2022-12-31T06:34:29.604Z,100231.91
2022-12-31T06:36:56.098Z,100230.00
2022-12-31T06:39:22.661Z,100231.06
2022-12-31T06:41:49.163Z,100222.63
2022-12-31T06:44:15.726Z,100233.50
2022-12-31T06:46:42.356Z,100240.88
2022-12-31T06:49:08.937Z,100239.22
2022-12-31T06:51:35.502Z,100245.50
2022-12-31T06:54:02.105Z,100235.13
2022-12-31T06:56:34.455Z,100238.38
2022-12-31T06:59:03.070Z,100248.63
2022-12-31T07:01:44.682Z,100246.75
2022-12-31T07:04:54.644Z,100253.81
2022-12-31T07:07:42.773Z,100263.06
2022-12-31T07:10:43.500Z,100269.31
2022-12-31T07:13:25.981Z,100259.25
2022-12-31T07:16:20.554Z,100262.47
2022-12-31T07:19:09.533Z,100272.53
2022-12-31T07:21:38.303Z,100266.00
2022-12-31T07:24:09.989Z,100275.78
2022-12-31T07:26:56.923Z,100273.06
2022-12-31T07:29:26.576Z,100255.13
2022-12-31T07:32:08.933Z,100266.00
2022-12-31T07:35:03.598Z,100259.97
2022-12-31T07:37:48.676Z,100252.84
2022-12-31T07:41:09.317Z,100262.63
2022-12-31T07:43:57.082Z,100272.72
2022-12-31T07:46:46.976Z,100250.94
2022-12-31T07:49:14.125Z,100268.88
2022-12-31T07:51:41.325Z,100260.72
2022-12-31T07:54:13.667Z,100275.13
2022-12-31T07:56:42.054Z,100277.84
2022-12-31T07:59:31.203Z,100274.31
2022-12-31T08:02:03.621Z,100295.78
2022-12-31T08:04:54.408Z,100299.59
2022-12-31T08:07:30.127Z,100313.50
2022-12-31T08:09:59.739Z,100319.22
2022-12-31T08:12:31.268Z,100323.03
2022-12-31T08:14:58.442Z,100321.38
2022-12-31T08:17:25.142Z,100331.66
2022-12-31T08:19:51.878Z,100328.63
2022-12-31T08:22:55.413Z,100328.38
2022-12-31T08:25:33.041Z,100331.88
2022-12-31T08:28:18.013Z,100351.72
2022-12-31T08:31:01.852Z,100345.50
2022-12-31T08:34:05.368Z,100359.09
2022-12-31T08:36:44.645Z,100360.69
2022-12-31T08:39:17.261Z,100373.19
2022-12-31T08:41:49.656Z,100369.66
2022-12-31T08:44:47.268Z,100373.19
2022-12-31T08:47:42.640Z,100382.47
2022-12-31T08:50:19.049Z,100383.56
2022-12-31T08:52:46.387Z,100389.00
2022-12-31T08:55:17.221Z,100386.53
2022-12-31T08:57:46.730Z,100393.56
2022-12-31T09:00:16.718Z,100393.00
2022-12-31T09:03:15.543Z,100381.03
2022-12-31T09:05:54.339Z,100377.47
2022-12-31T09:08:29.345Z,100392.72
2022-12-31T09:11:01.637Z,100381.84
2022-12-31T09:13:52.516Z,100383.75
2022-12-31T09:16:28.958Z,100392.72
2022-12-31T09:18:55.495Z,100378.84
2022-12-31T09:21:22.254Z,100396.25
2022-12-31T09:23:49.364Z,100404.13
2022-12-31T09:26:42.305Z,100410.38
2022-12-31T09:29:42.397Z,100407.94
2022-12-31T09:32:24.429Z,100423.47
2022-12-31T09:35:15.180Z,100406.88
2022-12-31T09:38:00.381Z,100421.50
2022-12-31T09:40:32.772Z,100408.69
2022-12-31T09:43:14.776Z,100417.41
2022-12-31T09:46:06.131Z,100415.75
2022-12-31T09:48:46.457Z,100438.34
2022-12-31T09:51:25.793Z,100454.66
2022-12-31T09:54:28.962Z,100450.84
2022-12-31T09:57:29.506Z,100451.66
2022-12-31T10:00:10.957Z,100434.81
2022-12-31T10:03:16.112Z,100428.78
2022-12-31T10:05:49.350Z,100444.31
2022-12-31T10:08:18.755Z,100449.44
2022-12-31T10:11:12.551Z,100444.00
2022-12-31T10:14:03.361Z,100438.56
2022-12-31T10:16:51.973Z,100444.53
2022-12-31T10:19:32.610Z,100458.94
2022-12-31T10:22:24.586Z,100458.94
2022-12-31T10:25:39.217Z,100458.16
2022-12-31T10:28:11.979Z,100466.31
2022-12-31T10:30:43.960Z,100466.31
2022-12-31T10:33:27.323Z,100467.91
2022-12-31T10:36:07.646Z,100469.84
2022-12-31T10:38:55.493Z,100481.25
2022-12-31T10:41:28.079Z,100490.72
2022-12-31T10:44:04.088Z,100489.41
2022-12-31T10:47:18.191Z,100481.81
2022-12-31T10:49:53.398Z,100484.81
2022-12-31T10:52:28.867Z,100491.38
2022-12-31T10:55:25.955Z,100488.88
2022-12-31T10:58:05.025Z,100486.41
2022-12-31T11:00:44.773Z,100479.84
2022-12-31T11:03:36.318Z,100476.84
2022-12-31T11:06:20.865Z,100468.69
2022-12-31T11:09:06.492Z,100458.59
2022-12-31T11:11:57.375Z,100472.47
2022-12-31T11:14:57.799Z,100466.47
2022-12-31T11:17:49.171Z,100477.34
2022-12-31T11:20:39.218Z,100470.00
2022-12-31T11:23:17.310Z,100468.91
2022-12-31T11:25:58.661Z,100466.19
2022-12-31T11:28:34.441Z,100459.19
2022-12-31T11:31:22.477Z,100471.19
2022-12-31T11:34:10.645Z,100467.34
2022-12-31T11:37:16.202Z,100463.75
2022-12-31T11:39:57.636Z,100444.41
2022-12-31T11:42:48.896Z,100445.22
2022-12-31T11:45:43.230Z,100446.84
2022-12-31T11:48:37.342Z,100446.03
2022-12-31T11:51:16.688Z,100444.09
2022-12-31T11:54:01.298Z,100438.66
2022-12-31T11:56:35.594Z,100429.13
2022-12-31T11:59:07.714Z,100426.41
2022-12-31T12:01:55.944Z,100419.84
2022-12-31T12:04:22.511Z,100430.72
2022-12-31T12:06:49.018Z,100424.47
2022-12-31T12:09:26.723Z,100419.84
2022-12-31T12:12:02.122Z,100434.25
2022-12-31T12:14:40.962Z,100438.09
2022-12-31T12:17:22.210Z,100457.66
2022-12-31T12:19:55.161Z,100446.75
2022-12-31T12:22:24.787Z,100454.91
2022-12-31T12:25:06.606Z,100457.38
2022-12-31T12:27:36.953Z,100438.31
2022-12-31T12:30:19.929Z,100454.66
2022-12-31T12:33:01.871Z,100466.34
2022-12-31T12:35:35.930Z,100457.38
2022-12-31T12:38:18.202Z,100453.53
2022-12-31T12:40:57.489Z,100437.19
2022-12-31T12:43:27.198Z,100435.59
2022-12-31T12:45:58.801Z,100444.56
2022-12-31T12:48:35.812Z,100428.50
2022-12-31T12:51:18.055Z,100446.47
2022-12-31T12:53:50.552Z,100439.94
2022-12-31T12:56:26.095Z,100439.13
2022-12-31T12:59:07.719Z,100444.56
2022-12-31T13:01:46.670Z,100458.97
2022-12-31T13:04:34.591Z,100462.81
2022-12-31T13:07:13.919Z,100466.13
2022-12-31T13:10:05.233Z,100472.94
2022-12-31T13:13:13.675Z,100475.66
2022-12-31T13:15:56.844Z,100463.09
2022-12-31T13:18:39.269Z,100458.69
2022-12-31T13:21:27.462Z,100466.56
2022-12-31T13:24:03.315Z,100452.66
2022-12-31T13:26:42.716Z,100461.94
2022-12-31T13:29:18.203Z,100475.53
2022-12-31T13:31:45.829Z,100469.00
2022-12-31T13:34:25.897Z,100460.81
2022-12-31T13:36:54.314Z,100473.34
2022-12-31T13:39:25.434Z,100475.53
2022-12-31T13:42:14.524Z,100485.31
2022-12-31T13:44:51.748Z,100492.19
2022-12-31T13:47:29.804Z,100490.84
2022-12-31T13:50:01.000Z,100502.00
2022-12-31T13:52:32.213Z,100493.34
2022-12-31T13:55:29.848Z,100486.19
2022-12-31T13:58:31.955Z,100477.69
2022-12-31T14:01:22.940Z,100488.28
2022-12-31T14:03:49.454Z,100470.31
2022-12-31T14:06:17.638Z,100467.59
2022-12-31T14:08:45.331Z,100473.06
2022-12-31T14:11:21.598Z,100468.94
2022-12-31T14:14:12.460Z,100476.28
2022-12-31T14:17:11.480Z,100475.19
2022-12-31T14:19:56.584Z,100473.56
2022-12-31T14:23:09.647Z,100479.06
2022-12-31T14:26:01.994Z,100481.78
2022-12-31T14:28:47.095Z,100473.13
2022-12-31T14:31:27.964Z,100473.41
2022-12-31T14:34:03.923Z,100494.59
2022-12-31T14:37:09.068Z,100480.91
2022-12-31T14:39:59.544Z,100477.91
2022-12-31T14:42:57.623Z,100495.88
2022-12-31T14:45:45.999Z,100509.16
2022-12-31T14:48:37.589Z,100505.66
2022-12-31T14:51:05.502Z,100504.84
2022-12-31T14:53:32.248Z,100508.38
2022-12-31T14:56:02.959Z,100516.53
2022-12-31T14:58:31.395Z,100499.69
2022-12-31T15:01:18.971Z,100498.59
2022-12-31T15:03:46.512Z,100490.72
2022-12-31T15:06:39.795Z,100489.06
2022-12-31T15:09:31.170Z,100512.78
2022-12-31T15:12:07.606Z,100499.97
2022-12-31T15:14:49.673Z,100508.13
2022-12-31T15:17:48.198Z,100495.56
2022-12-31T15:20:52.297Z,100491.44
2022-12-31T15:23:51.644Z,100484.09
2022-12-31T15:26:27.912Z,100488.72
2022-12-31T15:29:01.232Z,100486.81
2022-12-31T15:31:28.617Z,100472.38
2022-12-31T15:33:58.132Z,100479.44
2022-12-31T15:36:30.626Z,100484.09
2022-12-31T15:39:25.734Z,100478.13
2022-12-31T15:42:36.381Z,100475.13
2022-12-31T15:44:50.963Z,100463.41
2022-12-31T15:47:27.680Z,100460.16
2022-12-31T15:49:55.487Z,100469.44
2022-12-31T15:52:30.213Z,100491.22
2022-12-31T15:54:57.827Z,100462.59
2022-12-31T15:57:33.459Z,100454.66
2022-12-31T16:00:05.761Z,100431.78
2022-12-31T16:02:32.593Z,100429.84
2022-12-31T16:04:59.229Z,100440.75
2022-12-31T16:07:28.064Z,100444.28
2022-12-31T16:09:58.103Z,100446.72
2022-12-31T16:12:32.948Z,100446.19
2022-12-31T16:15:01.564Z,100453.25
2022-12-31T16:17:36.344Z,100451.38
2022-12-31T16:20:23.289Z,100451.63
2022-12-31T16:22:57.491Z,100451.94
2022-12-31T16:25:33.125Z,100448.41
2022-12-31T16:28:02.624Z,100446.78
2022-12-31T16:30:32.116Z,100447.88
2022-12-31T16:33:04.588Z,100433.47
2022-12-31T16:35:34.156Z,100430.97
2022-12-31T16:38:12.628Z,100427.66
2022-12-31T16:40:41.316Z,100442.09
2022-12-31T16:43:30.773Z,100437.44
2022-12-31T16:46:06.294Z,100432.00
2022-12-31T16:48:33.209Z,100439.34
2022-12-31T16:50:59.803Z,100433.59
2022-12-31T16:53:27.852Z,100412.94
2022-12-31T16:56:04.291Z,100419.50
2022-12-31T16:58:34.818Z,100420.28
2022-12-31T17:01:11.394Z,100430.38
2022-12-31T17:03:42.611Z,100435.03
2022-12-31T17:06:09.630Z,100424.41
2022-12-31T17:08:41.948Z,100426.31
2022-12-31T17:11:23.995Z,100415.44
2022-12-31T17:13:56.515Z,100422.78
2022-12-31T17:16:23.627Z,100418.69
2022-12-31T17:18:50.912Z,100418.38
2022-12-31T17:21:17.802Z,100422.22
2022-12-31T17:23:53.325Z,100420.28
2022-12-31T17:26:27.137Z,100434.41
2022-12-31T17:28:56.786Z,100431.69
2022-12-31T17:31:36.359Z,100432.00
2022-12-31T17:34:14.995Z,100442.88
2022-12-31T17:36:57.010Z,100435.81
2022-12-31T17:39:25.160Z,100427.66
2022-12-31T17:41:55.104Z,100424.94
2022-12-31T17:44:25.851Z,100438.81
2022-12-31T17:46:53.279Z,100430.97
2022-12-31T17:49:27.236Z,100431.78
2022-12-31T17:51:53.870Z,100432.88
2022-12-31T17:54:20.765Z,100417.34
2022-12-31T17:56:47.523Z,100423.28
2022-12-31T17:59:19.336Z,100432.31
2022-12-31T18:01:45.968Z,100424.63
2022-12-31T18:04:14.442Z,100433.59
2022-12-31T18:06:41.489Z,100456.19
2022-12-31T18:09:08.516Z,100436.06
2022-12-31T18:11:37.773Z,100440.97
2022-12-31T18:14:04.472Z,100433.59
2022-12-31T18:16:31.071Z,100439.34
2022-12-31T18:19:00.334Z,100439.34
2022-12-31T18:21:33.090Z,100423.28
2022-12-31T18:26:27.603Z,100438.03
2022-12-31T18:28:54.375Z,100431.78
2022-12-31T18:31:27.423Z,100439.13
2022-12-31T18:33:56.989Z,100429.84
2022-12-31T18:36:24.928Z,100438.03
2022-12-31T18:38:51.733Z,100440.16
2022-12-31T18:41:24.390Z,100453.78
2022-12-31T18:43:51.485Z,100459.53
2022-12-31T18:46:23.676Z,100444.00
2022-12-31T18:48:50.245Z,100459.81
2022-12-31T18:51:26.480Z,100466.38
2022-12-31T18:53:57.753Z,100470.69
2022-12-31T18:56:25.209Z,100468.50
2022-12-31T18:58:52.108Z,100472.31
2022-12-31T19:01:29.904Z,100479.41
2022-12-31T19:03:58.661Z,100486.47
2022-12-31T19:06:25.756Z,100485.94
2022-12-31T19:08:52.468Z,100480.47
2022-12-31T19:11:19.808Z,100476.94
2022-12-31T19:13:46.697Z,100468.78
2022-12-31T19:16:14.135Z,100469.59
2022-12-31T19:18:41.695Z,100483.19
2022-12-31T19:21:16.043Z,100471.50
2022-12-31T19:23:42.741Z,100478.06
2022-12-31T19:26:14.379Z,100475.34
2022-12-31T19:28:40.928Z,100473.72
2022-12-31T19:31:07.465Z,100481.91
2022-12-31T19:33:34.030Z,100475.66
2022-12-31T19:36:00.540Z,100487.03
2022-12-31T19:38:29.067Z,100489.75
2022-12-31T19:40:55.861Z,100505.81
2022-12-31T19:43:23.794Z,100505.00
2022-12-31T19:45:51.153Z,100506.91
2022-12-31T19:48:28.755Z,100506.09
2022-12-31T19:50:59.153Z,100504.50
2022-12-31T19:53:27.189Z,100499.03
2022-12-31T19:55:54.413Z,100501.47
2022-12-31T19:58:26.105Z,100512.34
2022-12-31T20:00:59.626Z,100509.94
2022-12-31T20:03:28.605Z,100523.84
2022-12-31T20:06:07.546Z,100527.38
2022-12-31T20:08:35.655Z,100533.09
2022-12-31T20:11:12.564Z,100512.97
2022-12-31T20:13:40.348Z,100527.38
2022-12-31T20:16:08.885Z,100529.81
2022-12-31T20:18:39.269Z,100522.44
2022-12-31T20:21:10.012Z,100514.25
2022-12-31T20:23:36.379Z,100527.06
2022-12-31T20:26:03.150Z,100527.06
2022-12-31T20:28:29.949Z,100521.13
2022-12-31T20:30:56.819Z,100526.56
2022-12-31T20:33:23.715Z,100527.66
2022-12-31T20:35:50.967Z,100519.47
2022-12-31T20:38:17.540Z,100512.44
2022-12-31T20:40:46.954Z,100510.81
2022-12-31T20:43:14.140Z,100531.78
2022-12-31T20:45:41.391Z,100521.97
2022-12-31T20:48:08.227Z,100515.44
2022-12-31T20:50:35.063Z,100525.50
2022-12-31T20:53:02.001Z,100527.72
2022-12-31T20:55:30.732Z,100530.44
2022-12-31T20:57:57.285Z,100534.28
2022-12-31T21:00:23.883Z,100530.72
2022-12-31T21:03:00.265Z,100541.41
2022-12-31T21:05:33.852Z,100536.78
2022-12-31T21:08:00.513Z,100543.53
2022-12-31T21:10:27.001Z,100560.47
2022-12-31T21:12:53.536Z,100535.75
2022-12-31T21:15:21.629Z,100535.44
2022-12-31T21:17:48.296Z,100542.00
2022-12-31T21:20:14.814Z,100556.41
2022-12-31T21:22:41.339Z,100537.63
2022-12-31T21:25:08.157Z,100551.53
2022-12-31T21:27:35.784Z,100542.56
2022-12-31T21:30:18.181Z,100535.78
2022-12-31T21:32:45.781Z,100539.31
2022-12-31T21:35:42.230Z,100560.28
2022-12-31T21:38:06.961Z,100543.94
2022-12-31T21:40:34.039Z,100563.31
2022-12-31T21:43:00.616Z,100565.22
2022-12-31T21:45:27.287Z,100569.84
2022-12-31T21:48:12.381Z,100558.13
2022-12-31T21:50:38.969Z,100565.78
2022-12-31T21:53:05.432Z,100561.44
2022-12-31T21:55:50.635Z,100564.97
2022-12-31T21:58:26.368Z,100569.63
2022-12-31T22:01:12.935Z,100571.50
2022-12-31T22:03:39.817Z,100573.16
2022-12-31T22:06:12.487Z,100568.78
2022-12-31T22:08:45.158Z,100560.91
2022-12-31T22:11:13.327Z,100562.03
2022-12-31T22:13:40.676Z,100566.66
2022-12-31T22:16:08.180Z,100561.22
2022-12-31T22:18:38.733Z,100565.84
2022-12-31T22:21:17.393Z,100577.00
2022-12-31T22:23:45.792Z,100581.66
2022-12-31T22:26:14.043Z,100581.94
2022-12-31T22:28:42.278Z,100580.03
2022-12-31T22:31:21.497Z,100569.94
2022-12-31T22:33:48.471Z,100575.66
2022-12-31T22:36:18.645Z,100572.94
2022-12-31T22:38:45.667Z,100592.00
2022-12-31T22:41:18.478Z,100575.97
2022-12-31T22:43:51.212Z,100587.66
2022-12-31T22:46:28.579Z,100578.69
2022-12-31T22:48:58.370Z,100587.16
2022-12-31T22:51:26.374Z,100574.34
2022-12-31T22:53:55.958Z,100580.06
2022-12-31T22:56:22.473Z,100587.41
2022-12-31T22:58:49.315Z,100575.22
2022-12-31T23:01:21.965Z,100598.06
2022-12-31T23:03:50.521Z,100605.97
2022-12-31T23:06:17.730Z,100591.81
2022-12-31T23:09:07.237Z,100605.16
2022-12-31T23:11:35.858Z,100611.69
2022-12-31T23:14:21.244Z,100611.97
2022-12-31T23:17:29.899Z,100615.81
2022-12-31T23:20:11.379Z,100624.78
2022-12-31T23:22:56.177Z,100614.97
2022-12-31T23:25:22.971Z,100613.34
2022-12-31T23:27:49.458Z,100635.41
2022-12-31T23:30:16.032Z,100620.16
2022-12-31T23:32:42.562Z,100623.72
2022-12-31T23:35:10.057Z,100613.91
2022-12-31T23:37:36.892Z,100621.28
2022-12-31T23:40:03.932Z,100625.06
2022-12-31T23:42:30.410Z,100614.19
2022-12-31T23:44:56.927Z,100626.97
2022-12-31T23:47:23.403Z,100613.38
2022-12-31T23:49:49.979Z,100624.25
2022-12-31T23:52:16.472Z,100621.53
2022-12-31T23:54:43.051Z,100622.66
2022-12-31T23:57:09.676Z,100630.81
2022-12-31T23:59:36.337Z,100629.97
